createdAt,value
2017-02-02T00:00:07.997Z,94.88
2017-02-02T00:01:07.568Z,94.88
2017-02-02T00:02:08.128Z,95.08
2017-02-02T00:03:07.716Z,95.02
2017-02-02T00:04:08.327Z,95.31
2017-02-02T00:05:07.921Z,95.12
2017-02-02T00:06:08.807Z,95.18
2017-02-02T00:07:08.713Z,95.20
2017-02-02T00:08:08.326Z,94.96
2017-02-02T00:09:07.918Z,94.60
2017-02-02T00:10:08.521Z,94.67
2017-02-02T00:11:08.022Z,94.63
2017-02-02T00:12:07.535Z,93.87
2017-02-02T00:13:08.078Z,94.27
2017-02-02T00:14:07.667Z,94.91
2017-02-02T00:15:08.223Z,95.40
2017-02-02T00:16:20.319Z,94.94
2017-02-02T00:17:08.277Z,94.68
2017-02-02T00:18:07.813Z,93.98
2017-02-02T00:19:08.323Z,94.72
2017-02-02T00:20:08.241Z,94.35
2017-02-02T00:21:07.908Z,93.74
2017-02-02T00:22:08.510Z,94.43
2017-02-02T00:23:08.098Z,95.11
2017-02-02T00:24:07.631Z,95.44
2017-02-02T00:25:08.207Z,95.63
2017-02-02T00:26:08.767Z,96.33
2017-02-02T00:27:08.281Z,95.96
2017-02-02T00:28:07.845Z,95.82
2017-02-02T00:29:08.371Z,95.56
2017-02-02T00:30:07.961Z,94.52
2017-02-02T00:31:07.526Z,94.39
2017-02-02T00:32:08.091Z,93.98
2017-02-02T00:33:08.000Z,93.84
2017-02-02T00:34:07.501Z,93.91
2017-02-02T00:35:08.071Z,94.34
2017-02-02T00:36:07.764Z,94.40
2017-02-02T00:37:08.340Z,94.76
2017-02-02T00:38:07.953Z,93.74
2017-02-02T00:39:07.612Z,94.39
2017-02-02T00:40:08.319Z,94.67
2017-02-02T00:41:07.860Z,94.20
2017-02-02T00:42:08.432Z,93.24
2017-02-02T00:43:08.206Z,94.20
2017-02-02T00:44:07.771Z,94.02
2017-02-02T00:45:08.280Z,93.56
2017-02-02T00:46:08.082Z,94.29
2017-02-02T00:47:07.593Z,94.46
2017-02-02T00:48:08.252Z,94.97
2017-02-02T00:49:07.809Z,95.24
2017-02-02T00:50:08.295Z,95.05
2017-02-02T00:51:07.851Z,95.03
2017-02-02T00:52:08.602Z,94.93
2017-02-02T00:53:08.270Z,94.74
2017-02-02T00:54:07.804Z,94.74
2017-02-02T00:55:08.342Z,94.42
2017-02-02T00:56:08.168Z,94.22
2017-02-02T00:57:07.711Z,94.37
2017-02-02T00:58:08.244Z,94.27
2017-02-02T00:59:08.119Z,93.22
2017-02-02T01:00:07.650Z,93.57
2017-02-02T01:01:08.304Z,93.67
2017-02-02T01:02:07.899Z,93.27
2017-02-02T01:03:08.429Z,93.42
2017-02-02T01:04:08.064Z,93.50
2017-02-02T01:05:07.596Z,94.03
2017-02-02T01:06:08.256Z,94.46
2017-02-02T01:07:07.989Z,94.93
2017-02-02T01:08:07.544Z,95.48
2017-02-02T01:09:08.146Z,95.41
2017-02-02T01:10:07.865Z,95.55
2017-02-02T01:11:08.398Z,94.43
2017-02-02T01:12:08.048Z,94.03
2017-02-02T01:13:07.576Z,94.14
2017-02-02T01:14:08.453Z,93.66
2017-02-02T01:15:08.220Z,94.81
2017-02-02T01:16:07.804Z,94.18
2017-02-02T01:17:08.482Z,93.84
2017-02-02T01:18:08.013Z,93.33
2017-02-02T01:19:07.500Z,93.59
2017-02-02T01:20:08.018Z,93.96
2017-02-02T01:21:07.554Z,94.23
2017-02-02T01:22:08.247Z,94.64
2017-02-02T01:23:07.805Z,93.74
2017-02-02T01:24:08.291Z,94.50
2017-02-02T01:25:07.844Z,94.48
2017-02-02T01:26:08.481Z,94.13
2017-02-02T01:27:08.103Z,93.49
2017-02-02T01:28:08.272Z,93.60
2017-02-02T01:29:07.918Z,93.62
2017-02-02T01:30:08.478Z,93.20
2017-02-02T01:31:08.115Z,92.64
2017-02-02T01:32:07.691Z,92.32
2017-02-02T01:33:08.251Z,92.97
2017-02-02T01:34:07.838Z,92.88
2017-02-02T01:35:08.371Z,94.71
2017-02-02T01:36:07.996Z,94.84
2017-02-02T01:37:07.566Z,94.66
2017-02-02T01:38:09.022Z,94.15
2017-02-02T01:39:07.779Z,94.78
2017-02-02T01:40:08.193Z,94.94
2017-02-02T01:41:08.339Z,94.67
2017-02-02T01:42:07.948Z,93.92
2017-02-02T01:43:07.541Z,94.23
2017-02-02T01:44:08.106Z,94.03
2017-02-02T01:45:08.523Z,94.86
2017-02-02T01:46:08.285Z,94.99
2017-02-02T01:47:07.832Z,94.93
2017-02-02T01:48:08.425Z,94.48
2017-02-02T01:49:08.013Z,94.31
2017-02-02T01:50:07.609Z,93.60
2017-02-02T01:51:08.406Z,93.56
2017-02-02T01:52:07.940Z,92.97
2017-02-02T01:53:07.452Z,94.00
2017-02-02T01:54:07.822Z,93.95
2017-02-02T01:55:08.337Z,93.74
2017-02-02T01:56:07.928Z,93.50
2017-02-02T01:57:08.642Z,94.21
2017-02-02T01:58:08.408Z,94.10
2017-02-02T01:59:07.948Z,94.91
2017-02-02T02:00:07.476Z,95.09
2017-02-02T02:01:07.991Z,93.75
2017-02-02T02:02:07.747Z,93.56
2017-02-02T02:03:08.388Z,92.62
2017-02-02T02:04:08.075Z,93.34
2017-02-02T02:05:07.790Z,94.00
2017-02-02T02:06:08.268Z,93.68
2017-02-02T02:07:07.888Z,93.68
2017-02-02T02:08:08.614Z,94.61
2017-02-02T02:09:09.033Z,94.64
2017-02-02T02:10:07.512Z,94.78
2017-02-02T02:11:08.057Z,94.65
2017-02-02T02:12:07.616Z,94.27
2017-02-02T02:13:08.202Z,93.89
2017-02-02T02:14:07.739Z,93.25
2017-02-02T02:15:08.550Z,92.66
2017-02-02T02:16:08.058Z,93.61
2017-02-02T02:17:07.814Z,92.93
2017-02-02T02:18:08.349Z,92.88
2017-02-02T02:19:07.899Z,93.84
2017-02-02T02:20:08.454Z,93.44
2017-02-02T02:21:08.060Z,93.08
2017-02-02T02:22:07.684Z,92.62
2017-02-02T02:23:08.262Z,93.12
2017-02-02T02:24:08.113Z,92.84
2017-02-02T02:25:07.709Z,93.22
2017-02-02T02:26:08.239Z,93.33
2017-02-02T02:27:07.830Z,92.92
2017-02-02T02:28:08.396Z,92.80
2017-02-02T02:29:07.907Z,93.14
2017-02-02T02:30:08.570Z,93.17
2017-02-02T02:31:08.049Z,92.65
2017-02-02T02:32:07.814Z,93.31
2017-02-02T02:33:08.445Z,93.03
2017-02-02T02:34:08.007Z,92.92
2017-02-02T02:35:07.729Z,92.47
2017-02-02T02:36:08.481Z,92.82
2017-02-02T02:37:08.031Z,93.55
2017-02-02T02:38:07.590Z,93.58
2017-02-02T02:39:08.455Z,93.23
2017-02-02T02:40:08.041Z,93.47
2017-02-02T02:41:07.529Z,93.57
2017-02-02T02:42:08.021Z,93.04
2017-02-02T02:43:07.608Z,93.80
2017-02-02T02:44:08.487Z,94.68
2017-02-02T02:45:08.163Z,93.66
2017-02-02T02:46:20.308Z,94.07
2017-02-02T02:47:07.866Z,93.21
2017-02-02T02:48:08.386Z,93.24
2017-02-02T02:49:07.848Z,93.91
2017-02-02T02:50:08.540Z,93.89
2017-02-02T02:51:08.097Z,93.70
2017-02-02T02:52:07.697Z,93.74
2017-02-02T02:53:08.208Z,93.09
2017-02-02T02:54:08.088Z,93.76
2017-02-02T02:55:07.607Z,94.21
2017-02-02T02:56:08.345Z,93.07
2017-02-02T02:57:07.834Z,93.69
2017-02-02T02:58:08.340Z,93.26
2017-02-02T02:59:07.886Z,93.40
2017-02-02T03:00:08.997Z,93.59
2017-02-02T03:01:07.645Z,94.01
2017-02-02T03:02:08.341Z,92.81
2017-02-02T03:03:19.432Z,93.25
2017-02-02T03:04:08.016Z,93.48
2017-02-02T03:05:07.523Z,93.03
2017-02-02T03:06:08.200Z,93.47
2017-02-02T03:07:07.828Z,94.21
2017-02-02T03:08:08.464Z,93.89
2017-02-02T03:09:08.293Z,93.80
2017-02-02T03:10:07.820Z,93.31
2017-02-02T03:11:08.686Z,92.40
2017-02-02T03:12:08.240Z,92.89
2017-02-02T03:13:07.743Z,94.13
2017-02-02T03:14:08.381Z,93.97
2017-02-02T03:15:08.059Z,93.62
2017-02-02T03:16:07.559Z,93.55
2017-02-02T03:17:08.295Z,93.67
2017-02-02T03:18:07.785Z,93.14
2017-02-02T03:19:08.553Z,93.26
2017-02-02T03:20:08.186Z,92.89
2017-02-02T03:21:07.669Z,92.57
2017-02-02T03:22:08.279Z,92.18
2017-02-02T03:23:19.658Z,91.87
2017-02-02T03:24:08.207Z,93.38
2017-02-02T03:25:07.853Z,94.15
2017-02-02T03:26:08.403Z,94.23
2017-02-02T03:27:08.006Z,94.54
2017-02-02T03:28:07.537Z,94.54
2017-02-02T03:29:08.065Z,93.58
2017-02-02T03:30:08.536Z,92.54
2017-02-02T03:31:08.068Z,91.77
2017-02-02T03:32:07.600Z,91.69
2017-02-02T03:33:08.172Z,91.30
2017-02-02T03:34:07.655Z,91.16
2017-02-02T03:35:08.147Z,91.95
2017-02-02T03:36:08.581Z,92.27
2017-02-02T03:37:08.160Z,91.72
2017-02-02T03:38:07.727Z,91.38
2017-02-02T03:39:09.248Z,92.47
2017-02-02T03:40:07.807Z,93.80
2017-02-02T03:41:08.329Z,93.37
2017-02-02T03:42:07.944Z,93.65
2017-02-02T03:43:07.617Z,92.92
2017-02-02T03:44:08.167Z,93.87
2017-02-02T03:45:07.651Z,93.98
2017-02-02T03:46:08.288Z,94.38
2017-02-02T03:47:07.926Z,93.52
2017-02-02T03:48:08.373Z,92.44
2017-02-02T03:49:07.889Z,92.70
2017-02-02T03:50:09.533Z,93.23
2017-02-02T03:51:08.119Z,93.88
2017-02-02T03:52:07.737Z,94.04
2017-02-02T03:53:08.203Z,93.87
2017-02-02T03:54:07.796Z,94.02
2017-02-02T03:55:08.354Z,93.80
2017-02-02T03:56:07.913Z,94.11
2017-02-02T03:57:08.690Z,93.96
2017-02-02T03:58:08.179Z,94.02
2017-02-02T03:59:07.808Z,93.97
2017-02-02T04:00:08.346Z,93.76
2017-02-02T04:01:07.825Z,93.20
2017-02-02T04:02:08.424Z,92.46
2017-02-02T04:03:07.970Z,93.99
2017-02-02T04:04:07.483Z,94.38
2017-02-02T04:05:08.105Z,93.65
2017-02-02T04:06:08.125Z,92.81
2017-02-02T04:07:07.798Z,93.47
2017-02-02T04:08:08.371Z,93.67
2017-02-02T04:09:07.846Z,93.28
2017-02-02T04:10:08.733Z,92.68
2017-02-02T04:11:08.209Z,92.67
2017-02-02T04:12:07.793Z,93.32
2017-02-02T04:13:08.571Z,93.92
2017-02-02T04:14:08.062Z,94.46
2017-02-02T04:15:07.645Z,94.45
2017-02-02T04:16:08.143Z,94.46
2017-02-02T04:17:07.932Z,93.87
2017-02-02T04:18:08.613Z,92.94
2017-02-02T04:19:08.172Z,92.89
2017-02-02T04:20:07.669Z,93.15
2017-02-02T04:21:08.237Z,93.76
2017-02-02T04:22:07.880Z,93.43
2017-02-02T04:23:08.703Z,93.19
2017-02-02T04:24:08.194Z,92.99
2017-02-02T04:25:07.836Z,92.12
2017-02-02T04:26:08.335Z,92.14
2017-02-02T04:27:08.087Z,92.21
2017-02-02T04:28:07.553Z,91.94
2017-02-02T04:29:08.070Z,92.38
2017-02-02T04:30:07.808Z,92.56
2017-02-02T04:31:08.357Z,92.51
2017-02-02T04:32:07.842Z,92.58
2017-02-02T04:33:08.477Z,94.20
2017-02-02T04:34:08.062Z,93.26
2017-02-02T04:35:08.506Z,93.09
2017-02-02T04:36:08.376Z,93.18
2017-02-02T04:37:07.923Z,93.40
2017-02-02T04:38:08.538Z,93.34
2017-02-02T04:39:08.246Z,93.33
2017-02-02T04:40:07.842Z,93.15
2017-02-02T04:41:08.309Z,93.62
2017-02-02T04:42:07.817Z,93.31
2017-02-02T04:43:08.368Z,92.52
2017-02-02T04:44:08.003Z,93.94
2017-02-02T04:45:07.548Z,94.49
2017-02-02T04:46:08.064Z,93.36
2017-02-02T04:47:07.538Z,92.71
2017-02-02T04:48:08.164Z,92.87
2017-02-02T04:49:07.708Z,93.25
2017-02-02T04:50:08.284Z,92.91
2017-02-02T04:51:08.194Z,93.09
2017-02-02T04:52:07.810Z,93.16
2017-02-02T04:53:08.351Z,93.10
2017-02-02T04:54:07.952Z,92.63
2017-02-02T04:55:07.429Z,92.42
2017-02-02T04:56:08.052Z,92.53
2017-02-02T04:57:07.560Z,92.60
2017-02-02T04:58:08.237Z,92.99
2017-02-02T04:59:07.864Z,93.72
2017-02-02T05:00:08.478Z,93.43
2017-02-02T05:01:08.112Z,92.65
2017-02-02T05:02:07.749Z,92.73
2017-02-02T05:03:08.253Z,92.58
2017-02-02T05:04:07.751Z,93.45
2017-02-02T05:05:07.743Z,93.88
2017-02-02T05:06:08.495Z,93.59
2017-02-02T05:07:07.979Z,94.11
2017-02-02T05:08:07.780Z,94.11
2017-02-02T05:09:08.380Z,94.28
2017-02-02T05:10:07.928Z,94.07
2017-02-02T05:11:08.426Z,94.74
2017-02-02T05:12:08.903Z,93.94
2017-02-02T05:13:08.439Z,93.56
2017-02-02T05:14:08.010Z,92.87
2017-02-02T05:15:07.612Z,92.69
2017-02-02T05:16:08.150Z,92.27
2017-02-02T05:17:07.644Z,92.28
2017-02-02T05:18:08.381Z,92.94
2017-02-02T05:19:07.984Z,92.54
2017-02-02T05:20:07.582Z,92.66
2017-02-02T05:21:08.236Z,91.91
2017-02-02T05:22:07.804Z,91.86
2017-02-02T05:23:08.341Z,91.44
2017-02-02T05:24:07.927Z,92.49
2017-02-02T05:25:11.463Z,93.12
2017-02-02T05:26:08.182Z,93.43
2017-02-02T05:27:07.751Z,94.08
2017-02-02T05:28:08.416Z,94.02
2017-02-02T05:29:08.277Z,93.82
2017-02-02T05:30:07.842Z,93.99
2017-02-02T05:31:08.338Z,93.16
2017-02-02T05:32:07.796Z,92.76
2017-02-02T05:33:08.366Z,92.83
2017-02-02T05:34:07.902Z,92.77
2017-02-02T05:35:08.477Z,92.82
2017-02-02T05:36:08.189Z,93.19
2017-02-02T05:37:07.720Z,92.80
2017-02-02T05:38:08.316Z,92.29
2017-02-02T05:39:08.165Z,91.94
2017-02-02T05:40:07.681Z,92.18
2017-02-02T05:41:08.333Z,92.79
2017-02-02T05:42:07.790Z,93.07
2017-02-02T05:43:08.349Z,92.24
2017-02-02T05:44:07.846Z,92.40
2017-02-02T05:45:08.199Z,92.80
2017-02-02T05:46:07.848Z,93.22
2017-02-02T05:47:08.357Z,93.53
2017-02-02T05:48:08.146Z,93.56
2017-02-02T05:49:07.715Z,93.23
2017-02-02T05:50:08.242Z,93.33
2017-02-02T05:51:07.843Z,93.16
2017-02-02T05:52:08.471Z,93.71
2017-02-02T05:53:08.008Z,94.09
2017-02-02T05:54:07.638Z,93.56
2017-02-02T05:55:08.345Z,92.91
2017-02-02T05:56:07.780Z,93.14
2017-02-02T05:57:08.304Z,93.59
2017-02-02T05:58:07.797Z,93.12
2017-02-02T05:59:08.382Z,92.85
2017-02-02T06:00:07.948Z,93.22
2017-02-02T06:01:07.460Z,94.06
2017-02-02T06:02:07.930Z,94.49
2017-02-02T06:03:07.547Z,93.90
2017-02-02T06:04:08.057Z,93.23
2017-02-02T06:05:07.961Z,92.98
2017-02-02T06:06:07.667Z,92.40
2017-02-02T06:07:08.348Z,92.27
2017-02-02T06:08:08.799Z,92.90
2017-02-02T06:09:08.333Z,92.86
2017-02-02T06:10:07.911Z,92.88
2017-02-02T06:11:08.634Z,93.03
2017-02-02T06:12:08.101Z,93.08
2017-02-02T06:13:07.629Z,92.46
2017-02-02T06:14:08.208Z,92.52
2017-02-02T06:15:07.740Z,93.08
2017-02-02T06:16:08.555Z,93.59
2017-02-02T06:17:08.230Z,93.75
2017-02-02T06:18:07.747Z,94.33
2017-02-02T06:19:08.564Z,94.08
2017-02-02T06:20:08.103Z,94.05
2017-02-02T06:21:08.067Z,93.79
2017-02-02T06:22:07.846Z,93.59
2017-02-02T06:23:08.449Z,93.45
2017-02-02T06:24:08.053Z,93.42
2017-02-02T06:25:07.684Z,93.72
2017-02-02T06:26:08.206Z,94.12
2017-02-02T06:27:07.999Z,94.19
2017-02-02T06:28:07.491Z,94.79
2017-02-02T06:29:08.045Z,93.99
2017-02-02T06:30:07.668Z,93.76
2017-02-02T06:31:08.513Z,93.29
2017-02-02T06:32:08.072Z,93.27
2017-02-02T06:33:07.635Z,93.12
2017-02-02T06:34:08.089Z,93.21
2017-02-02T06:35:07.692Z,93.03
2017-02-02T06:36:08.353Z,92.68
2017-02-02T06:37:07.868Z,92.54
2017-02-02T06:38:08.565Z,92.70
2017-02-02T06:39:08.160Z,93.21
2017-02-02T06:40:08.668Z,93.20
2017-02-02T06:41:08.242Z,94.36
2017-02-02T06:42:08.172Z,94.80
2017-02-02T06:43:07.708Z,95.06
2017-02-02T06:44:08.268Z,95.30
2017-02-02T06:45:08.033Z,95.22
2017-02-02T06:46:07.585Z,94.59
2017-02-02T06:47:08.080Z,93.89
2017-02-02T06:48:07.789Z,93.83
2017-02-02T06:49:08.380Z,93.73
2017-02-02T06:50:07.880Z,93.92
2017-02-02T06:51:08.428Z,94.02
2017-02-02T06:52:08.176Z,93.64
2017-02-02T06:53:07.669Z,93.22
2017-02-02T06:54:08.243Z,93.40
2017-02-02T06:55:07.999Z,93.84
2017-02-02T06:56:07.493Z,93.89
2017-02-02T06:57:08.168Z,94.52
2017-02-02T06:58:07.786Z,94.69
2017-02-02T06:59:08.341Z,93.81
2017-02-02T07:00:07.919Z,92.76
2017-02-02T07:01:08.443Z,93.14
2017-02-02T07:02:08.275Z,93.94
2017-02-02T07:03:08.704Z,93.40
2017-02-02T07:04:08.273Z,93.82
2017-02-02T07:05:07.749Z,93.54
2017-02-02T07:06:08.378Z,93.55
2017-02-02T07:07:07.895Z,95.07
2017-02-02T07:08:08.557Z,94.91
2017-02-02T07:09:08.157Z,94.99
2017-02-02T07:10:07.751Z,94.81
2017-02-02T07:11:08.303Z,94.72
2017-02-02T07:12:07.863Z,93.89
2017-02-02T07:13:08.439Z,93.87
2017-02-02T07:14:08.020Z,94.35
2017-02-02T07:15:07.506Z,94.72
2017-02-02T07:16:08.035Z,93.25
2017-02-02T07:17:07.738Z,93.11
2017-02-02T07:18:08.197Z,93.14
2017-02-02T07:19:07.823Z,93.09
2017-02-02T07:20:08.381Z,93.65
2017-02-02T07:21:08.236Z,93.98
2017-02-02T07:22:07.818Z,94.14
2017-02-02T07:23:08.435Z,93.39
2017-02-02T07:24:08.072Z,94.12
2017-02-02T07:25:07.683Z,93.67
2017-02-02T07:26:08.319Z,93.33
2017-02-02T07:27:07.902Z,93.65
2017-02-02T07:28:07.411Z,93.03
2017-02-02T07:29:08.203Z,93.43
2017-02-02T07:30:07.825Z,93.08
2017-02-02T07:31:08.369Z,92.49
2017-02-02T07:32:08.003Z,92.66
2017-02-02T07:33:07.542Z,92.38
2017-02-02T07:34:08.109Z,92.24
2017-02-02T07:35:07.637Z,92.13
2017-02-02T07:36:08.462Z,92.77
2017-02-02T07:37:08.200Z,93.39
2017-02-02T07:38:07.786Z,92.90
2017-02-02T07:39:08.372Z,93.28
2017-02-02T07:40:07.872Z,93.62
2017-02-02T07:41:08.465Z,94.26
2017-02-02T07:42:08.062Z,94.13
2017-02-02T07:43:07.659Z,93.99
2017-02-02T07:44:08.235Z,93.47
2017-02-02T07:45:07.764Z,93.67
2017-02-02T07:46:08.299Z,93.48
2017-02-02T07:47:08.058Z,92.97
2017-02-02T07:48:07.559Z,92.38
2017-02-02T07:49:20.667Z,92.86
2017-02-02T07:50:08.378Z,92.97
2017-02-02T07:51:07.868Z,92.81
2017-02-02T07:52:08.506Z,92.75
2017-02-02T07:53:08.006Z,92.56
2017-02-02T07:54:07.688Z,92.33
2017-02-02T07:55:08.186Z,92.13
2017-02-02T07:56:07.813Z,92.47
2017-02-02T07:57:08.356Z,92.01
2017-02-02T07:58:07.980Z,92.06
2017-02-02T07:59:07.501Z,92.01
2017-02-02T08:00:08.141Z,92.26
2017-02-02T08:01:07.633Z,93.07
2017-02-02T08:02:08.171Z,92.77
2017-02-02T08:03:07.768Z,93.33
2017-02-02T08:04:08.257Z,93.79
2017-02-02T08:05:07.738Z,93.16
2017-02-02T08:06:08.557Z,92.38
2017-02-02T08:07:08.055Z,91.97
2017-02-02T08:08:07.623Z,92.32
2017-02-02T08:09:08.304Z,92.84
2017-02-02T08:10:07.805Z,93.19
2017-02-02T08:11:08.703Z,93.41
2017-02-02T08:12:08.191Z,92.62
2017-02-02T08:13:08.038Z,92.63
2017-02-02T08:14:07.634Z,92.16
2017-02-02T08:15:08.133Z,92.11
2017-02-02T08:16:07.642Z,91.88
2017-02-02T08:17:08.344Z,91.70
2017-02-02T08:18:08.001Z,91.60
2017-02-02T08:19:07.552Z,91.72
2017-02-02T08:20:08.085Z,91.58
2017-02-02T08:21:07.995Z,91.53
2017-02-02T08:22:07.766Z,91.81
2017-02-02T08:23:08.334Z,92.06
2017-02-02T08:24:07.892Z,92.51
2017-02-02T08:25:08.148Z,92.68
2017-02-02T08:26:07.758Z,93.15
2017-02-02T08:27:08.363Z,92.92
2017-02-02T08:28:07.971Z,92.63
2017-02-02T08:29:07.588Z,92.04
2017-02-02T08:30:08.151Z,92.16
2017-02-02T08:31:07.978Z,92.25
2017-02-02T08:32:07.533Z,92.20
2017-02-02T08:33:08.100Z,92.02
2017-02-02T08:34:07.834Z,91.90
2017-02-02T08:35:08.373Z,92.01
2017-02-02T08:36:08.025Z,91.80
2017-02-02T08:37:07.918Z,91.81
2017-02-02T08:38:07.515Z,91.89
2017-02-02T08:39:08.203Z,92.25
2017-02-02T08:40:07.771Z,91.77
2017-02-02T08:41:08.312Z,91.55
2017-02-02T08:42:07.821Z,91.34
2017-02-02T08:43:08.558Z,91.23
2017-02-02T08:44:08.307Z,91.07
2017-02-02T08:45:07.798Z,91.14
2017-02-02T08:46:08.422Z,90.75
2017-02-02T08:47:07.989Z,90.92
2017-02-02T08:48:07.512Z,91.09
2017-02-02T08:49:08.211Z,91.20
2017-02-02T08:50:07.788Z,91.67
2017-02-02T08:51:08.421Z,91.22
2017-02-02T08:52:08.124Z,91.64
2017-02-02T08:53:07.722Z,91.55
2017-02-02T08:54:08.336Z,91.87
2017-02-02T08:55:07.914Z,91.64
2017-02-02T08:56:07.499Z,91.48
2017-02-02T08:57:08.060Z,91.36
2017-02-02T08:58:07.791Z,90.39
2017-02-02T08:59:08.452Z,90.48
2017-02-02T09:00:08.038Z,91.05
2017-02-02T09:01:07.618Z,91.20
2017-02-02T09:02:08.151Z,91.51
2017-02-02T09:03:07.755Z,91.14
2017-02-02T09:04:08.308Z,91.39
2017-02-02T09:05:08.207Z,91.32
2017-02-02T09:06:07.878Z,91.37
2017-02-02T09:07:07.346Z,91.20
2017-02-02T09:08:07.893Z,91.19
2017-02-02T09:09:07.522Z,91.32
2017-02-02T09:10:08.168Z,91.62
2017-02-02T09:11:07.699Z,91.11
2017-02-02T09:12:08.199Z,91.62
2017-02-02T09:13:07.727Z,91.38
2017-02-02T09:14:08.208Z,91.18
2017-02-02T09:15:07.940Z,90.92
2017-02-02T09:16:07.510Z,91.45
2017-02-02T09:17:08.152Z,91.68
2017-02-02T09:18:07.608Z,91.52
2017-02-02T09:19:08.403Z,91.24
2017-02-02T09:20:08.889Z,91.19
2017-02-02T09:21:07.441Z,90.90
2017-02-02T09:22:08.141Z,90.85
2017-02-02T09:23:07.679Z,90.52
2017-02-02T09:24:08.338Z,90.54
2017-02-02T09:25:08.156Z,90.56
2017-02-02T09:26:07.676Z,90.44
2017-02-02T09:27:09.142Z,91.25
2017-02-02T09:28:07.722Z,90.23
2017-02-02T09:29:08.517Z,90.76
2017-02-02T09:30:08.511Z,90.94
2017-02-02T09:31:07.930Z,90.15
2017-02-02T09:32:07.543Z,90.39
2017-02-02T09:33:08.047Z,89.71
2017-02-02T09:34:07.692Z,89.60
2017-02-02T09:35:08.312Z,88.96
2017-02-02T09:36:08.101Z,88.93
2017-02-02T09:37:07.643Z,89.72
2017-02-02T09:38:08.413Z,89.64
2017-02-02T09:39:08.323Z,89.31
2017-02-02T09:40:07.877Z,90.27
2017-02-02T09:41:07.653Z,89.53
2017-02-02T09:42:08.293Z,89.29
2017-02-02T09:43:07.830Z,89.43
2017-02-02T09:44:08.366Z,89.13
2017-02-02T09:45:07.838Z,89.71
2017-02-02T09:46:08.375Z,89.54
2017-02-02T09:47:07.912Z,89.51
2017-02-02T09:48:07.456Z,88.96
2017-02-02T09:49:08.034Z,88.24
2017-02-02T09:50:07.527Z,88.57
2017-02-02T09:51:08.120Z,88.60
2017-02-02T09:52:07.753Z,88.59
2017-02-02T09:53:08.282Z,89.08
2017-02-02T09:54:07.811Z,88.86
2017-02-02T09:55:08.422Z,88.68
2017-02-02T09:56:08.046Z,88.78
2017-02-02T09:57:07.588Z,88.68
2017-02-02T09:58:08.433Z,88.94
2017-02-02T09:59:08.005Z,88.45
2017-02-02T10:00:07.480Z,87.89
2017-02-02T10:01:08.051Z,87.97
2017-02-02T10:02:07.717Z,87.94
2017-02-02T10:03:08.337Z,87.96
2017-02-02T10:04:07.901Z,87.84
2017-02-02T10:05:07.506Z,88.38
2017-02-02T10:06:08.212Z,88.39
2017-02-02T10:07:07.705Z,89.15
2017-02-02T10:08:08.349Z,88.15
2017-02-02T10:09:07.925Z,87.97
2017-02-02T10:10:07.479Z,87.95
2017-02-02T10:11:08.024Z,88.26
2017-02-02T10:12:07.667Z,88.21
2017-02-02T10:13:08.243Z,88.89
2017-02-02T10:14:07.964Z,89.27
2017-02-02T10:15:07.636Z,89.56
2017-02-02T10:16:08.230Z,89.22
2017-02-02T10:17:07.846Z,88.70
2017-02-02T10:18:08.485Z,88.87
2017-02-02T10:19:23.487Z,89.07
2017-02-02T10:20:08.018Z,88.92
2017-02-02T10:21:23.390Z,88.98
2017-02-02T10:22:08.024Z,89.35
2017-02-02T10:23:07.533Z,89.22
2017-02-02T10:24:08.142Z,88.92
2017-02-02T10:25:07.647Z,89.15
2017-02-02T10:26:08.266Z,89.34
2017-02-02T10:27:07.926Z,89.23
2017-02-02T10:28:07.492Z,89.35
2017-02-02T10:29:08.085Z,89.19
2017-02-02T10:30:07.613Z,89.05
2017-02-02T10:31:08.201Z,89.43
2017-02-02T10:32:07.771Z,88.96
2017-02-02T10:33:20.914Z,88.88
2017-02-02T10:34:07.756Z,88.94
2017-02-02T10:35:07.756Z,88.52
2017-02-02T10:36:08.498Z,88.50
2017-02-02T10:37:08.048Z,88.40
2017-02-02T10:38:07.561Z,87.75
2017-02-02T10:39:08.319Z,87.58
2017-02-02T10:40:07.899Z,87.56
2017-02-02T10:41:08.647Z,87.81
2017-02-02T10:42:08.756Z,87.32
2017-02-02T10:43:08.274Z,87.52
2017-02-02T10:44:08.009Z,87.68
2017-02-02T10:45:07.502Z,87.31
2017-02-02T10:46:08.001Z,87.18
2017-02-02T10:47:07.633Z,86.89
2017-02-02T10:48:08.444Z,86.62
2017-02-02T10:49:07.943Z,85.98
2017-02-02T10:50:07.507Z,86.12
2017-02-02T10:51:08.042Z,86.38
2017-02-02T10:52:07.815Z,86.05
2017-02-02T10:53:08.390Z,85.80
2017-02-02T10:54:07.943Z,85.65
2017-02-02T10:55:07.459Z,85.30
2017-02-02T10:56:08.008Z,85.45
2017-02-02T10:57:07.521Z,85.26
2017-02-02T10:58:08.017Z,84.48
2017-02-02T10:59:07.516Z,84.30
2017-02-02T11:00:08.987Z,84.68
2017-02-02T11:01:08.031Z,83.96
2017-02-02T11:02:07.587Z,83.50
2017-02-02T11:03:08.136Z,83.34
2017-02-02T11:04:07.818Z,83.23
2017-02-02T11:05:08.353Z,83.32
2017-02-02T11:06:08.025Z,83.85
2017-02-02T11:07:07.569Z,83.77
2017-02-02T11:08:08.072Z,83.87
2017-02-02T11:09:07.613Z,84.27
2017-02-02T11:10:08.198Z,84.51
2017-02-02T11:11:07.798Z,84.50
2017-02-02T11:12:08.327Z,84.12
2017-02-02T11:13:07.770Z,84.69
2017-02-02T11:14:08.164Z,84.94
2017-02-02T11:15:07.675Z,84.99
2017-02-02T11:16:08.224Z,85.07
2017-02-02T11:17:07.923Z,84.93
2017-02-02T11:18:08.450Z,84.60
2017-02-02T11:19:08.021Z,84.94
2017-02-02T11:20:07.524Z,85.02
2017-02-02T11:21:08.043Z,85.12
2017-02-02T11:22:07.608Z,85.25
2017-02-02T11:23:08.148Z,86.12
2017-02-02T11:24:07.997Z,86.33
2017-02-02T11:25:07.552Z,86.74
2017-02-02T11:26:08.115Z,86.86
2017-02-02T11:27:07.839Z,87.09
2017-02-02T11:28:08.405Z,87.50
2017-02-02T11:29:07.920Z,87.51
2017-02-02T11:30:20.134Z,87.13
2017-02-02T11:31:07.732Z,87.51
2017-02-02T11:32:08.582Z,86.72
2017-02-02T11:33:08.111Z,86.84
2017-02-02T11:34:07.673Z,87.51
2017-02-02T11:35:08.254Z,87.39
2017-02-02T11:36:08.084Z,87.17
2017-02-02T11:37:07.956Z,87.03
2017-02-02T11:38:08.492Z,87.07
2017-02-02T11:39:08.018Z,86.75
2017-02-02T11:40:07.870Z,86.82
2017-02-02T11:41:08.409Z,86.93
2017-02-02T11:42:07.977Z,86.95
2017-02-02T11:43:08.816Z,86.86
2017-02-02T11:44:08.389Z,87.47
2017-02-02T11:45:07.916Z,87.01
2017-02-02T11:46:08.417Z,86.95
2017-02-02T11:47:07.911Z,87.15
2017-02-02T11:48:08.517Z,87.56
2017-02-02T11:49:08.050Z,87.55
2017-02-02T11:50:07.622Z,87.70
2017-02-02T11:51:08.171Z,87.63
2017-02-02T11:52:07.821Z,87.31
2017-02-02T11:53:08.461Z,87.18
2017-02-02T11:54:08.038Z,87.02
2017-02-02T11:55:07.601Z,87.35
2017-02-02T11:56:08.079Z,87.25
2017-02-02T11:57:07.776Z,87.24
2017-02-02T11:58:08.320Z,87.45
2017-02-02T11:59:07.859Z,87.45
2017-02-02T12:00:08.430Z,87.38
2017-02-02T12:01:08.020Z,87.07
2017-02-02T12:02:08.618Z,87.74
2017-02-02T12:03:08.183Z,87.36
2017-02-02T12:04:07.743Z,86.94
2017-02-02T12:05:08.348Z,87.53
2017-02-02T12:06:08.114Z,87.25
2017-02-02T12:07:08.551Z,87.34
2017-02-02T12:08:08.175Z,87.20
2017-02-02T12:09:07.769Z,86.78
2017-02-02T12:10:08.342Z,86.46
2017-02-02T12:11:07.869Z,86.79
2017-02-02T12:12:08.392Z,86.84
2017-02-02T12:13:07.885Z,86.44
2017-02-02T12:14:08.475Z,86.77
2017-02-02T12:15:08.061Z,86.48
2017-02-02T12:16:07.723Z,86.03
2017-02-02T12:17:08.430Z,85.96
2017-02-02T12:18:07.925Z,85.91
2017-02-02T12:19:08.471Z,86.01
2017-02-02T12:20:08.061Z,86.39
2017-02-02T12:21:07.555Z,86.64
2017-02-02T12:22:08.062Z,85.84
2017-02-02T12:23:07.817Z,85.38
2017-02-02T12:24:08.475Z,85.17
2017-02-02T12:25:07.973Z,85.01
2017-02-02T12:26:08.573Z,84.88
2017-02-02T12:27:08.082Z,84.73
2017-02-02T12:28:07.551Z,84.85
2017-02-02T12:29:09.058Z,85.30
2017-02-02T12:30:07.859Z,85.12
2017-02-02T12:31:08.338Z,85.25
2017-02-02T12:32:07.806Z,85.31
2017-02-02T12:33:08.314Z,84.87
2017-02-02T12:34:07.826Z,84.43
2017-02-02T12:35:08.374Z,84.24
2017-02-02T12:36:08.150Z,84.14
2017-02-02T12:37:07.745Z,84.14
2017-02-02T12:38:08.257Z,84.05
2017-02-02T12:39:07.818Z,84.01
2017-02-02T12:40:08.426Z,83.94
2017-02-02T12:41:07.961Z,82.92
2017-02-02T12:42:08.571Z,82.66
2017-02-02T12:43:08.562Z,83.04
2017-02-02T12:44:08.111Z,82.72
2017-02-02T12:45:07.710Z,82.12
2017-02-02T12:46:08.231Z,81.85
2017-02-02T12:47:07.979Z,82.13
2017-02-02T12:48:08.627Z,82.34
2017-02-02T12:49:08.234Z,82.89
2017-02-02T12:50:07.835Z,82.63
2017-02-02T12:51:08.459Z,82.24
2017-02-02T12:52:07.991Z,82.03